createdAt,value
2023-05-20T00:00:08.317Z,22.51
2023-05-20T00:01:08.273Z,22.51
2023-05-20T00:02:08.262Z,22.50
2023-05-20T00:03:08.397Z,22.51
2023-05-20T00:04:08.471Z,22.51
2023-05-20T00:05:08.439Z,22.51
2023-05-20T00:06:08.309Z,22.50
2023-05-20T00:07:08.315Z,22.50
2023-05-20T00:08:08.312Z,22.50
2023-05-20T00:09:08.312Z,22.51
2023-05-20T00:10:08.324Z,22.50
2023-05-20T00:11:08.325Z,22.50
2023-05-20T00:12:08.298Z,22.50
2023-05-20T00:13:08.313Z,22.50
2023-05-20T00:14:08.275Z,22.50
2023-05-20T00:15:08.278Z,22.49
2023-05-20T00:16:08.410Z,22.50
2023-05-20T00:17:08.300Z,22.49
2023-05-20T00:18:08.324Z,22.49
2023-05-20T00:19:08.354Z,22.49
2023-05-20T00:20:08.322Z,22.49
2023-05-20T00:21:08.313Z,22.50
2023-05-20T00:22:08.312Z,22.49
2023-05-20T00:23:08.311Z,22.49
2023-05-20T00:24:08.329Z,22.49
2023-05-20T00:25:08.315Z,22.49
2023-05-20T00:26:08.320Z,22.48
2023-05-20T00:27:08.342Z,22.49
2023-05-20T00:28:08.344Z,22.48
2023-05-20T00:29:08.349Z,22.48
2023-05-20T00:30:08.356Z,22.48
2023-05-20T00:31:08.364Z,22.48
2023-05-20T00:32:08.408Z,22.48
2023-05-20T00:33:08.486Z,22.48
2023-05-20T00:34:08.378Z,22.48
2023-05-20T00:35:08.384Z,22.48
2023-05-20T00:36:08.400Z,22.47
2023-05-20T00:37:08.393Z,22.48
2023-05-20T00:38:08.404Z,22.48
2023-05-20T00:39:08.414Z,22.48
2023-05-20T00:40:08.437Z,22.47
2023-05-20T00:41:08.379Z,22.47
2023-05-20T00:42:08.431Z,22.48
2023-05-20T00:43:08.407Z,22.48
2023-05-20T00:44:08.438Z,22.47
2023-05-20T00:45:08.436Z,22.48
2023-05-20T00:46:08.463Z,22.47
2023-05-20T00:47:08.420Z,22.48
2023-05-20T00:48:08.494Z,22.48
2023-05-20T00:49:08.440Z,22.47
2023-05-20T00:50:08.448Z,22.47
2023-05-20T00:51:08.451Z,22.47
2023-05-20T00:52:08.442Z,22.47
2023-05-20T00:53:08.442Z,22.47
2023-05-20T00:54:08.443Z,22.47
2023-05-20T00:55:08.450Z,22.47
2023-05-20T00:56:08.458Z,22.47
2023-05-20T00:57:08.472Z,22.47
2023-05-20T00:58:08.464Z,22.47
2023-05-20T00:59:08.466Z,22.47
2023-05-20T01:00:08.508Z,22.47
2023-05-20T01:01:08.542Z,22.46
2023-05-20T01:02:08.543Z,22.47
2023-05-20T01:03:08.635Z,22.46
2023-05-20T01:04:08.464Z,22.46
2023-05-20T01:05:08.517Z,22.47
2023-05-20T01:06:08.501Z,22.47
2023-05-20T01:07:08.492Z,22.47
2023-05-20T01:08:08.502Z,22.47
2023-05-20T01:09:08.526Z,22.46
2023-05-20T01:10:08.529Z,22.46
2023-05-20T01:11:08.511Z,22.45
2023-05-20T01:12:08.511Z,22.45
2023-05-20T01:13:08.534Z,22.45
2023-05-20T01:14:08.524Z,22.45
2023-05-20T01:15:08.526Z,22.46
2023-05-20T01:16:08.603Z,22.45
2023-05-20T01:17:08.534Z,22.46
2023-05-20T01:18:08.592Z,22.44
2023-05-20T01:19:08.588Z,22.46
2023-05-20T01:20:08.565Z,22.44
2023-05-20T01:21:08.572Z,22.44
2023-05-20T01:22:08.603Z,22.44
2023-05-20T01:23:08.586Z,22.44
2023-05-20T01:24:08.615Z,22.44
2023-05-20T01:25:08.612Z,22.43
2023-05-20T01:26:08.627Z,22.44
2023-05-20T01:27:08.633Z,22.44
2023-05-20T01:28:08.665Z,22.43
2023-05-20T01:29:08.730Z,22.43
2023-05-20T01:30:08.665Z,22.44
2023-05-20T01:31:08.738Z,22.43
2023-05-20T01:32:08.662Z,22.44
2023-05-20T01:33:08.731Z,22.43
2023-05-20T01:34:08.705Z,22.43
2023-05-20T01:35:08.701Z,22.43
2023-05-20T01:36:08.701Z,22.43
2023-05-20T01:37:08.706Z,22.44
2023-05-20T01:38:08.720Z,22.43
2023-05-20T01:39:08.713Z,22.43
2023-05-20T01:40:08.725Z,22.43
2023-05-20T01:41:08.725Z,22.43
2023-05-20T01:42:08.761Z,22.43
2023-05-20T01:43:08.770Z,22.43
2023-05-20T01:44:08.772Z,22.43
2023-05-20T01:45:08.776Z,22.43
2023-05-20T01:46:08.849Z,22.42
2023-05-20T01:47:08.787Z,22.42
2023-05-20T01:48:08.800Z,22.42
2023-05-20T01:49:08.774Z,22.42
2023-05-20T01:50:08.806Z,22.43
2023-05-20T01:51:08.805Z,22.43
2023-05-20T01:52:08.867Z,22.42
2023-05-20T01:53:08.842Z,22.42
2023-05-20T01:54:08.813Z,22.42
2023-05-20T01:55:08.846Z,22.42
2023-05-20T01:56:08.845Z,22.42
2023-05-20T01:57:08.889Z,22.41
2023-05-20T01:58:08.865Z,22.42
2023-05-20T01:59:08.887Z,22.43
2023-05-20T02:00:08.899Z,22.42
2023-05-20T02:01:08.959Z,22.41
2023-05-20T02:02:08.984Z,22.42
2023-05-20T02:03:08.925Z,22.41
2023-05-20T02:04:08.909Z,22.42
2023-05-20T02:05:08.942Z,22.41
2023-05-20T02:06:09.007Z,22.41
2023-05-20T02:07:08.949Z,22.42
2023-05-20T02:08:08.993Z,22.41
2023-05-20T02:09:09.005Z,22.41
2023-05-20T02:10:08.999Z,22.41
2023-05-20T02:11:09.060Z,22.40
2023-05-20T02:12:09.083Z,22.40
2023-05-20T02:13:09.070Z,22.41
2023-05-20T02:14:09.075Z,22.41
2023-05-20T02:15:09.088Z,22.41
2023-05-20T02:16:09.147Z,22.40
2023-05-20T02:17:09.127Z,22.41
2023-05-20T02:18:09.233Z,22.40
2023-05-20T02:19:09.195Z,22.41
2023-05-20T02:20:09.153Z,22.40
2023-05-20T02:21:09.159Z,22.40
2023-05-20T02:22:09.149Z,22.40
2023-05-20T02:23:09.299Z,22.40
2023-05-20T02:24:09.183Z,22.40
2023-05-20T02:25:09.208Z,22.40
2023-05-20T02:26:09.230Z,22.40
2023-05-20T02:27:09.235Z,22.39
2023-05-20T02:28:09.240Z,22.40
2023-05-20T02:29:09.240Z,22.40
2023-05-20T02:30:09.248Z,22.39
2023-05-20T02:31:09.258Z,22.40
2023-05-20T02:32:09.288Z,22.39
2023-05-20T02:33:09.369Z,22.39
2023-05-20T02:34:09.383Z,22.39
2023-05-20T02:35:09.349Z,22.39
2023-05-20T02:36:09.333Z,22.40
2023-05-20T02:37:09.339Z,22.39
2023-05-20T02:38:09.364Z,22.39
2023-05-20T02:39:09.367Z,22.39
2023-05-20T02:40:09.467Z,22.39
2023-05-20T02:41:09.422Z,22.38
2023-05-20T02:42:09.436Z,22.39
2023-05-20T02:43:09.446Z,22.38
2023-05-20T02:44:09.455Z,22.38
2023-05-20T02:45:09.492Z,22.38
2023-05-20T02:46:09.488Z,22.38
2023-05-20T02:47:09.483Z,22.38
2023-05-20T02:48:09.529Z,22.39
2023-05-20T02:49:09.520Z,22.38
2023-05-20T02:50:09.529Z,22.38
2023-05-20T02:51:09.542Z,22.38
2023-05-20T02:52:09.535Z,22.39
2023-05-20T02:53:09.568Z,22.39
2023-05-20T02:54:09.562Z,22.38
2023-05-20T02:55:09.598Z,22.38
2023-05-20T02:56:09.605Z,22.37
2023-05-20T02:57:09.628Z,22.37
2023-05-20T02:58:09.641Z,22.37
2023-05-20T02:59:09.601Z,22.37
2023-05-20T03:00:09.668Z,22.38
2023-05-20T03:01:09.696Z,22.36
2023-05-20T03:02:09.677Z,22.37
2023-05-20T03:03:09.859Z,22.37
2023-05-20T03:04:09.736Z,22.37
2023-05-20T03:05:09.790Z,22.37
2023-05-20T03:06:09.725Z,22.37
2023-05-20T03:07:09.736Z,22.36
2023-05-20T03:08:09.750Z,22.37
2023-05-20T03:09:09.767Z,22.37
2023-05-20T03:10:09.766Z,22.37
2023-05-20T03:11:09.798Z,22.37
2023-05-20T03:12:09.799Z,22.37
2023-05-20T03:13:09.858Z,22.36
2023-05-20T03:14:09.826Z,22.37
2023-05-20T03:15:09.821Z,22.36
2023-05-20T03:16:09.907Z,22.36
2023-05-20T03:17:09.867Z,22.36
2023-05-20T03:18:09.889Z,22.36
2023-05-20T03:19:09.953Z,22.36
2023-05-20T03:20:09.927Z,22.37
2023-05-20T03:21:09.946Z,22.37
2023-05-20T03:22:09.932Z,22.36
2023-05-20T03:23:09.954Z,22.36
2023-05-20T03:24:09.977Z,22.36
2023-05-20T03:25:09.976Z,22.35
2023-05-20T03:26:10.008Z,22.35
2023-05-20T03:27:10.049Z,22.36
2023-05-20T03:28:10.048Z,22.35
2023-05-20T03:29:10.070Z,22.36
2023-05-20T03:30:10.076Z,22.35
2023-05-20T03:31:10.195Z,22.35
2023-05-20T03:32:10.838Z,22.35
2023-05-20T03:33:10.151Z,22.35
2023-05-20T03:34:10.149Z,22.35
2023-05-20T03:35:10.170Z,22.35
2023-05-20T03:36:10.179Z,22.35
2023-05-20T03:37:10.217Z,22.35
2023-05-20T03:38:10.238Z,22.35
2023-05-20T03:39:10.271Z,22.35
2023-05-20T03:40:10.348Z,22.35
2023-05-20T03:41:10.297Z,22.35
2023-05-20T03:42:10.345Z,22.34
2023-05-20T03:43:10.306Z,22.35
2023-05-20T03:44:10.332Z,22.35
2023-05-20T03:45:10.359Z,22.35
2023-05-20T03:46:10.442Z,22.35
2023-05-20T03:47:10.407Z,22.35
2023-05-20T03:48:10.458Z,22.35
2023-05-20T03:49:10.469Z,22.35
2023-05-20T03:50:10.468Z,22.35
2023-05-20T03:51:10.516Z,22.35
2023-05-20T03:52:10.564Z,22.35
2023-05-20T03:53:10.558Z,22.35
2023-05-20T03:54:10.552Z,22.36
2023-05-20T03:55:10.587Z,22.35
2023-05-20T03:56:11.310Z,22.35
2023-05-20T03:57:10.654Z,22.35
2023-05-20T03:58:10.693Z,22.35
2023-05-20T03:59:10.721Z,22.35
2023-05-20T04:00:10.695Z,22.35
2023-05-20T04:01:10.750Z,22.35
2023-05-20T04:02:10.779Z,22.34
2023-05-20T04:03:10.967Z,22.35
2023-05-20T04:04:10.849Z,22.35
2023-05-20T04:05:10.835Z,22.34
2023-05-20T04:06:10.841Z,22.35
2023-05-20T04:07:10.857Z,22.35
2023-05-20T04:08:10.874Z,22.35
2023-05-20T04:09:10.942Z,22.35
2023-05-20T04:10:10.955Z,22.35
2023-05-20T04:11:10.950Z,22.36
2023-05-20T04:12:10.978Z,22.35
2023-05-20T04:13:11.022Z,22.35
2023-05-20T04:14:11.028Z,22.35
2023-05-20T04:15:11.032Z,22.35
2023-05-20T04:16:11.105Z,22.35
2023-05-20T04:17:11.097Z,22.36
2023-05-20T04:18:11.154Z,22.35
2023-05-20T04:19:11.188Z,22.36
2023-05-20T04:20:11.153Z,22.36
2023-05-20T04:21:11.158Z,22.35
2023-05-20T04:22:11.197Z,22.34
2023-05-20T04:23:11.199Z,22.35
2023-05-20T04:24:11.252Z,22.36
2023-05-20T04:25:11.267Z,22.35
2023-05-20T04:26:11.265Z,22.35
2023-05-20T04:27:11.302Z,22.36
2023-05-20T04:28:11.304Z,22.36
2023-05-20T04:29:11.338Z,22.37
2023-05-20T04:30:11.373Z,22.37
2023-05-20T04:31:11.378Z,22.37
2023-05-20T04:32:11.533Z,22.36
2023-05-20T04:33:11.530Z,22.36
2023-05-20T04:34:11.452Z,22.37
2023-05-20T04:35:11.525Z,22.37
2023-05-20T04:36:11.501Z,22.37
2023-05-20T04:37:11.541Z,22.37
2023-05-20T04:38:11.527Z,22.37
2023-05-20T04:39:11.582Z,22.38
2023-05-20T04:40:11.595Z,22.38
2023-05-20T04:41:11.639Z,22.37
2023-05-20T04:42:11.664Z,22.37
2023-05-20T04:43:11.694Z,22.38
2023-05-20T04:44:11.707Z,22.38
2023-05-20T04:45:11.717Z,22.38
2023-05-20T04:46:11.753Z,22.38
2023-05-20T04:47:11.787Z,22.38
2023-05-20T04:48:11.877Z,22.38
2023-05-20T04:49:11.816Z,22.38
2023-05-20T04:50:11.820Z,22.38
2023-05-20T04:51:11.843Z,22.38
2023-05-20T04:52:11.847Z,22.38
2023-05-20T04:53:11.863Z,22.38
2023-05-20T04:54:11.906Z,22.38
2023-05-20T04:55:12.014Z,22.38
2023-05-20T04:56:11.944Z,22.38
2023-05-20T04:57:12.985Z,22.38
2023-05-20T04:58:11.947Z,22.39
2023-05-20T04:59:11.978Z,22.38
2023-05-20T05:00:11.990Z,22.39
2023-05-20T05:01:12.032Z,22.39
2023-05-20T05:02:12.008Z,22.39
2023-05-20T05:03:12.034Z,22.40
2023-05-20T05:04:12.074Z,22.39
2023-05-20T05:05:12.060Z,22.40
2023-05-20T05:06:12.046Z,22.41
2023-05-20T05:07:12.066Z,22.40
2023-05-20T05:08:12.073Z,22.41
2023-05-20T05:09:12.073Z,22.40
2023-05-20T05:10:12.093Z,22.41
2023-05-20T05:11:12.125Z,22.41
2023-05-20T05:12:12.106Z,22.41
2023-05-20T05:13:12.134Z,22.41
2023-05-20T05:14:12.133Z,22.41
2023-05-20T05:15:12.118Z,22.41
2023-05-20T05:16:12.211Z,22.41
2023-05-20T05:17:12.178Z,22.41
2023-05-20T05:18:12.238Z,22.41
2023-05-20T05:19:12.264Z,22.42
2023-05-20T05:20:12.197Z,22.42
2023-05-20T05:21:12.226Z,22.42
2023-05-20T05:22:12.226Z,22.42
2023-05-20T05:23:12.236Z,22.43
2023-05-20T05:24:12.244Z,22.42
2023-05-20T05:25:12.252Z,22.43
2023-05-20T05:26:12.269Z,22.43
2023-05-20T05:27:12.281Z,22.44
2023-05-20T05:28:12.292Z,22.43
2023-05-20T05:29:12.324Z,22.44
2023-05-20T05:30:12.302Z,22.44
2023-05-20T05:31:12.311Z,22.45
2023-05-20T05:32:12.397Z,22.45
2023-05-20T05:33:12.384Z,22.44
2023-05-20T05:34:12.358Z,22.45
2023-05-20T05:35:12.354Z,22.46
2023-05-20T05:36:12.402Z,22.46
2023-05-20T05:37:12.381Z,22.46
2023-05-20T05:38:12.380Z,22.46
2023-05-20T05:39:12.384Z,22.46
2023-05-20T05:40:12.429Z,22.47
2023-05-20T05:41:12.430Z,22.47
2023-05-20T05:42:12.475Z,22.46
2023-05-20T05:43:12.465Z,22.47
2023-05-20T05:44:12.448Z,22.47
2023-05-20T05:45:12.491Z,22.47
2023-05-20T05:46:12.476Z,22.47
2023-05-20T05:47:12.611Z,22.47
2023-05-20T05:48:12.578Z,22.48
2023-05-20T05:49:12.556Z,22.47
2023-05-20T05:50:12.535Z,22.47
2023-05-20T05:51:12.554Z,22.47
2023-05-20T05:52:12.566Z,22.47
2023-05-20T05:53:12.585Z,22.47
2023-05-20T05:54:12.593Z,22.47
2023-05-20T05:55:12.601Z,22.47
2023-05-20T05:56:12.600Z,22.47
2023-05-20T05:57:12.628Z,22.47
2023-05-20T05:58:12.619Z,22.47
2023-05-20T05:59:12.620Z,22.47
2023-05-20T06:00:12.615Z,22.47
2023-05-20T06:01:12.675Z,22.47
2023-05-20T06:02:12.674Z,22.48
2023-05-20T06:03:12.709Z,22.47
2023-05-20T06:04:12.701Z,22.47
2023-05-20T06:05:12.669Z,22.48
2023-05-20T06:06:12.665Z,22.48
2023-05-20T06:07:12.674Z,22.48
2023-05-20T06:08:12.683Z,22.48
2023-05-20T06:09:12.699Z,22.48
2023-05-20T06:10:12.726Z,22.48
2023-05-20T06:11:12.670Z,22.49
2023-05-20T06:12:14.137Z,22.48
2023-05-20T06:13:12.676Z,22.48
2023-05-20T06:14:12.700Z,22.48
2023-05-20T06:15:12.682Z,22.49
2023-05-20T06:16:12.731Z,22.49
2023-05-20T06:17:12.707Z,22.49
2023-05-20T06:18:12.736Z,22.49
2023-05-20T06:19:12.722Z,22.50
2023-05-20T06:20:12.694Z,22.50
2023-05-20T06:21:12.672Z,22.51
2023-05-20T06:22:12.694Z,22.51
2023-05-20T06:23:12.707Z,22.51
2023-05-20T06:24:12.701Z,22.51
2023-05-20T06:25:12.688Z,22.50
2023-05-20T06:26:12.672Z,22.50
2023-05-20T06:27:12.714Z,22.50
2023-05-20T06:28:12.706Z,22.51
2023-05-20T06:29:12.712Z,22.51
2023-05-20T06:30:12.738Z,22.51
2023-05-20T06:31:12.777Z,22.51
2023-05-20T06:32:12.777Z,22.51
2023-05-20T06:33:12.775Z,22.51
2023-05-20T06:34:12.758Z,22.51
2023-05-20T06:35:12.764Z,22.52
2023-05-20T06:36:12.758Z,22.52
2023-05-20T06:37:12.752Z,22.51
2023-05-20T06:38:12.778Z,22.51
2023-05-20T06:39:12.799Z,22.52
2023-05-20T06:40:12.760Z,22.52
2023-05-20T06:41:12.766Z,22.52
2023-05-20T06:42:12.743Z,22.53
2023-05-20T06:43:12.772Z,22.53
2023-05-20T06:44:12.760Z,22.54
2023-05-20T06:45:12.795Z,22.54
2023-05-20T06:46:12.820Z,22.55
2023-05-20T06:47:12.802Z,22.56
2023-05-20T06:48:12.796Z,22.57
2023-05-20T06:49:12.787Z,22.57
2023-05-20T06:50:12.776Z,22.58
2023-05-20T06:51:12.789Z,22.59
2023-05-20T06:52:12.761Z,22.60
2023-05-20T06:53:12.789Z,22.60
2023-05-20T06:54:12.803Z,22.61
2023-05-20T06:55:12.784Z,22.61
2023-05-20T06:56:12.790Z,22.61
2023-05-20T06:57:12.807Z,22.62
2023-05-20T06:58:12.780Z,22.61
2023-05-20T06:59:13.431Z,22.62
2023-05-20T07:00:12.770Z,22.62
2023-05-20T07:01:12.835Z,22.61
2023-05-20T07:02:12.890Z,22.62
2023-05-20T07:03:12.860Z,22.62
2023-05-20T07:04:12.944Z,22.63
2023-05-20T07:05:12.801Z,22.64
2023-05-20T07:06:12.831Z,22.64
2023-05-20T07:07:13.246Z,22.63
2023-05-20T07:08:12.866Z,22.64
2023-05-20T07:09:12.829Z,22.64
2023-05-20T07:10:12.818Z,22.64
2023-05-20T07:11:12.801Z,22.65
2023-05-20T07:12:12.815Z,22.64
2023-05-20T07:13:12.785Z,22.65
2023-05-20T07:14:12.823Z,22.65
2023-05-20T07:15:12.828Z,22.65
2023-05-20T07:16:12.884Z,22.65
2023-05-20T07:17:12.825Z,22.65
2023-05-20T07:18:12.881Z,22.65
2023-05-20T07:19:12.843Z,22.66
2023-05-20T07:20:12.808Z,22.64
2023-05-20T07:21:12.864Z,22.65
2023-05-20T07:22:12.813Z,22.65
2023-05-20T07:23:13.928Z,22.66
2023-05-20T07:24:12.828Z,22.65
2023-05-20T07:25:12.806Z,22.66
2023-05-20T07:26:12.843Z,22.66
2023-05-20T07:27:12.856Z,22.67
2023-05-20T07:28:12.804Z,22.68
2023-05-20T07:29:12.839Z,22.68
2023-05-20T07:30:12.807Z,22.69
2023-05-20T07:31:12.829Z,22.70
2023-05-20T07:32:12.808Z,22.70
2023-05-20T07:33:12.784Z,22.71
2023-05-20T07:34:12.797Z,22.71
2023-05-20T07:35:12.783Z,22.71
2023-05-20T07:36:12.735Z,22.71
2023-05-20T07:37:12.800Z,22.73
2023-05-20T07:38:12.814Z,22.72
2023-05-20T07:39:15.066Z,22.72
2023-05-20T07:40:12.946Z,22.71
2023-05-20T07:41:12.940Z,22.72
2023-05-20T07:42:12.992Z,22.73
2023-05-20T07:43:13.037Z,22.72
2023-05-20T07:44:13.134Z,22.72
2023-05-20T07:45:13.142Z,22.72
2023-05-20T07:46:13.181Z,22.73
2023-05-20T07:47:13.242Z,22.73
2023-05-20T07:48:13.365Z,22.72
2023-05-20T07:49:13.264Z,22.73
2023-05-20T07:50:13.316Z,22.73
2023-05-20T07:51:13.377Z,22.73
2023-05-20T07:52:13.441Z,22.74
2023-05-20T07:53:13.450Z,22.74
2023-05-20T07:54:13.471Z,22.74
2023-05-20T07:55:13.531Z,22.75
2023-05-20T07:56:13.570Z,22.75
2023-05-20T07:57:13.633Z,22.74
2023-05-20T07:58:13.704Z,22.75
2023-05-20T07:59:13.749Z,22.76
2023-05-20T08:00:13.803Z,22.75
2023-05-20T08:01:13.848Z,22.76
2023-05-20T08:02:13.973Z,22.76
2023-05-20T08:03:14.160Z,22.76
2023-05-20T08:04:14.141Z,22.77
2023-05-20T08:05:14.135Z,22.78
2023-05-20T08:06:14.191Z,22.78
2023-05-20T08:07:14.227Z,22.78
2023-05-20T08:08:14.261Z,22.77
2023-05-20T08:09:14.368Z,22.78
2023-05-20T08:10:14.384Z,22.78
2023-05-20T08:11:14.486Z,22.79
2023-05-20T08:12:14.493Z,22.79
2023-05-20T08:13:14.572Z,22.80
2023-05-20T08:14:14.653Z,22.79
2023-05-20T08:15:14.678Z,22.80
2023-05-20T08:16:14.783Z,22.80
2023-05-20T08:17:14.893Z,22.81
2023-05-20T08:18:14.881Z,22.81
2023-05-20T08:19:14.981Z,22.82
2023-05-20T08:20:14.987Z,22.81
2023-05-20T08:21:15.058Z,22.82
2023-05-20T08:22:15.131Z,22.82
2023-05-20T08:23:15.165Z,22.83
2023-05-20T08:24:15.213Z,22.83
2023-05-20T08:25:15.267Z,22.84
2023-05-20T08:26:15.305Z,22.83
2023-05-20T08:27:15.379Z,22.83
2023-05-20T08:28:15.420Z,22.83
2023-05-20T08:29:15.474Z,22.83
2023-05-20T08:30:15.546Z,22.83
2023-05-20T08:31:15.647Z,22.83
2023-05-20T08:32:15.675Z,22.84
2023-05-20T08:33:15.717Z,22.83
2023-05-20T08:34:15.806Z,22.84
2023-05-20T08:35:15.840Z,22.84
2023-05-20T08:36:15.908Z,22.85
2023-05-20T08:37:15.951Z,22.86
2023-05-20T08:38:16.024Z,22.86
2023-05-20T08:39:16.078Z,22.88
2023-05-20T08:40:16.141Z,22.90
2023-05-20T08:41:16.202Z,22.90
2023-05-20T08:42:16.257Z,22.91
2023-05-20T08:43:16.294Z,22.92
2023-05-20T08:44:16.343Z,22.93
2023-05-20T08:45:16.388Z,22.93
2023-05-20T08:46:18.277Z,22.93
2023-05-20T08:47:16.504Z,22.94
2023-05-20T08:48:16.546Z,22.93
2023-05-20T08:49:16.615Z,22.94
2023-05-20T08:50:16.672Z,22.94
2023-05-20T08:51:16.738Z,22.93
2023-05-20T08:52:16.781Z,22.94
2023-05-20T08:53:16.827Z,22.93
2023-05-20T08:54:16.936Z,22.94
2023-05-20T08:55:16.930Z,22.93
2023-05-20T08:56:16.969Z,22.94
2023-05-20T08:57:17.080Z,22.95
2023-05-20T08:58:17.090Z,22.96
2023-05-20T08:59:17.136Z,22.97
2023-05-20T09:00:17.244Z,22.97
2023-05-20T09:01:17.272Z,22.96
2023-05-20T09:02:17.347Z,22.97
2023-05-20T09:03:17.429Z,22.97
2023-05-20T09:04:17.434Z,22.96
2023-05-20T09:05:17.467Z,22.98
2023-05-20T09:06:19.506Z,22.98
2023-05-20T09:07:17.608Z,22.98
2023-05-20T09:08:17.635Z,22.99
2023-05-20T09:09:17.668Z,22.99
2023-05-20T09:10:17.704Z,22.98
2023-05-20T09:11:17.795Z,22.99
2023-05-20T09:12:17.832Z,22.99
2023-05-20T09:13:17.851Z,23.00
2023-05-20T09:14:17.962Z,23.00
2023-05-20T09:15:17.966Z,23.00
2023-05-20T09:16:18.050Z,23.01
2023-05-20T09:17:18.063Z,23.01
2023-05-20T09:18:18.116Z,23.02
2023-05-20T09:19:18.195Z,23.02
2023-05-20T09:20:18.199Z,23.03
2023-05-20T09:21:18.229Z,23.03
2023-05-20T09:22:18.282Z,23.03
2023-05-20T09:23:18.280Z,23.04
2023-05-20T09:24:18.387Z,23.04
2023-05-20T09:25:18.394Z,23.06
2023-05-20T09:26:18.500Z,23.06
2023-05-20T09:27:18.474Z,23.06
2023-05-20T09:28:18.513Z,23.07
2023-05-20T09:29:18.549Z,23.08
2023-05-20T09:30:18.583Z,23.08
2023-05-20T09:31:18.668Z,23.09
2023-05-20T09:32:18.708Z,23.10
2023-05-20T09:33:18.708Z,23.11
2023-05-20T09:34:18.716Z,23.11
2023-05-20T09:35:18.745Z,23.12
2023-05-20T09:36:18.767Z,23.12
2023-05-20T09:37:18.806Z,23.11
2023-05-20T09:38:18.856Z,23.11
2023-05-20T09:39:18.888Z,23.12
2023-05-20T09:40:18.975Z,23.13
2023-05-20T09:41:18.955Z,23.14
2023-05-20T09:42:18.984Z,23.14
2023-05-20T09:43:19.019Z,23.14
2023-05-20T09:44:19.055Z,23.14
2023-05-20T09:45:19.095Z,23.14
2023-05-20T09:46:19.152Z,23.14
2023-05-20T09:47:19.125Z,23.13
2023-05-20T09:48:19.247Z,23.14
2023-05-20T09:49:19.203Z,23.15
2023-05-20T09:50:19.254Z,23.15
2023-05-20T09:51:19.203Z,23.16
2023-05-20T09:52:21.321Z,23.16
2023-05-20T09:53:19.289Z,23.17
2023-05-20T09:54:19.295Z,23.18
2023-05-20T09:55:19.352Z,23.18
2023-05-20T09:56:19.331Z,23.19
2023-05-20T09:57:19.358Z,23.20
2023-05-20T09:58:19.409Z,23.21
2023-05-20T09:59:19.427Z,23.22
2023-05-20T10:00:19.491Z,23.21
2023-05-20T10:01:19.484Z,23.22
2023-05-20T10:02:19.547Z,23.22
2023-05-20T10:03:19.600Z,23.23
2023-05-20T10:04:19.539Z,23.23
2023-05-20T10:05:19.567Z,23.24
2023-05-20T10:06:19.591Z,23.24
2023-05-20T10:07:30.550Z,23.24
2023-05-20T10:08:20.601Z,23.24
2023-05-20T10:09:19.587Z,23.24
2023-05-20T10:10:19.591Z,23.24
2023-05-20T10:11:19.589Z,23.24
2023-05-20T10:12:19.561Z,23.24
2023-05-20T10:13:19.631Z,23.26
2023-05-20T10:14:19.563Z,23.26
2023-05-20T10:15:19.520Z,23.28
2023-05-20T10:16:19.581Z,23.27
2023-05-20T10:17:19.562Z,23.27
2023-05-20T10:18:19.544Z,23.27
2023-05-20T10:19:19.561Z,23.28
2023-05-20T10:20:19.500Z,23.28
2023-05-20T10:21:19.491Z,23.29
2023-05-20T10:22:19.484Z,23.29
2023-05-20T10:23:19.501Z,23.29
2023-05-20T10:24:19.514Z,23.29
2023-05-20T10:25:19.480Z,23.30
2023-05-20T10:26:19.501Z,23.30
2023-05-20T10:27:19.472Z,23.30
2023-05-20T10:28:19.437Z,23.31
2023-05-20T10:29:19.455Z,23.32
2023-05-20T10:30:19.456Z,23.33
2023-05-20T10:31:19.448Z,23.34
2023-05-20T10:32:19.445Z,23.35
2023-05-20T10:33:19.511Z,23.36
2023-05-20T10:34:19.463Z,23.37
2023-05-20T10:35:19.457Z,23.38
2023-05-20T10:36:19.460Z,23.38
2023-05-20T10:37:19.484Z,23.39
2023-05-20T10:38:19.483Z,23.40
2023-05-20T10:39:19.475Z,23.41
2023-05-20T10:40:19.490Z,23.42
2023-05-20T10:41:19.474Z,23.42
2023-05-20T10:42:19.500Z,23.44
2023-05-20T10:43:19.502Z,23.44
2023-05-20T10:44:19.514Z,23.45
2023-05-20T10:45:19.462Z,23.45
2023-05-20T10:46:31.145Z,23.45
2023-05-20T10:47:25.437Z,23.46
2023-05-20T10:48:20.568Z,23.45
2023-05-20T10:49:19.808Z,23.47
2023-05-20T10:50:19.464Z,23.48
2023-05-20T10:51:19.468Z,23.48
2023-05-20T10:52:19.441Z,23.48
2023-05-20T10:53:29.758Z,23.49
2023-05-20T10:54:20.439Z,23.49
2023-05-20T10:55:19.450Z,23.49
2023-05-20T10:56:19.401Z,23.48
2023-05-20T10:57:19.405Z,23.50
2023-05-20T10:58:19.390Z,23.51
2023-05-20T10:59:19.406Z,23.51
2023-05-20T11:00:19.370Z,23.52
2023-05-20T11:01:19.512Z,23.52
2023-05-20T11:02:19.386Z,23.53
2023-05-20T11:03:19.481Z,23.53
2023-05-20T11:04:19.464Z,23.53
2023-05-20T11:05:19.365Z,23.53
2023-05-20T11:06:19.394Z,23.53
2023-05-20T11:07:19.375Z,23.54
2023-05-20T11:08:27.710Z,23.55
2023-05-20T11:09:20.337Z,23.54
2023-05-20T11:10:19.343Z,23.55
2023-05-20T11:11:19.323Z,23.54
2023-05-20T11:12:19.311Z,23.55
2023-05-20T11:13:19.343Z,23.55
2023-05-20T11:14:19.297Z,23.56
2023-05-20T11:15:19.330Z,23.55
2023-05-20T11:16:19.330Z,23.55
2023-05-20T11:17:19.272Z,23.55
2023-05-20T11:18:19.354Z,23.55
2023-05-20T11:19:19.378Z,23.56
2023-05-20T11:20:19.253Z,23.57
2023-05-20T11:21:19.258Z,23.57
2023-05-20T11:22:19.259Z,23.57
2023-05-20T11:23:19.263Z,23.57
2023-05-20T11:24:19.267Z,23.57
2023-05-20T11:25:19.241Z,23.58
2023-05-20T11:26:19.234Z,23.58
2023-05-20T11:27:19.224Z,23.57
2023-05-20T11:28:19.210Z,23.57
2023-05-20T11:29:19.200Z,23.57
2023-05-20T11:30:19.235Z,23.58
2023-05-20T11:31:19.171Z,23.58
2023-05-20T11:32:19.273Z,23.59
2023-05-20T11:33:19.220Z,23.59
2023-05-20T11:34:19.177Z,23.59
2023-05-20T11:35:19.171Z,23.59
2023-05-20T11:36:27.526Z,23.59
2023-05-20T11:37:20.156Z,23.58
2023-05-20T11:38:19.151Z,23.59
2023-05-20T11:39:19.170Z,23.59
2023-05-20T11:40:19.112Z,23.59
2023-05-20T11:41:19.129Z,23.59
2023-05-20T11:42:19.148Z,23.59
2023-05-20T11:43:20.033Z,23.60
2023-05-20T11:44:19.095Z,23.60
2023-05-20T11:45:19.110Z,23.61
2023-05-20T11:46:19.155Z,23.61
2023-05-20T11:47:21.354Z,23.61
2023-05-20T11:48:19.065Z,23.61
2023-05-20T11:49:19.059Z,23.62
2023-05-20T11:50:19.051Z,23.62
2023-05-20T11:51:19.058Z,23.61
2023-05-20T11:52:19.058Z,23.62
2023-05-20T11:53:19.058Z,23.62
2023-05-20T11:54:19.062Z,23.62
2023-05-20T11:55:19.035Z,23.61
2023-05-20T11:56:19.030Z,23.62
2023-05-20T11:57:18.988Z,23.62
2023-05-20T11:58:19.008Z,23.62
2023-05-20T11:59:19.073Z,23.62
2023-05-20T12:00:19.004Z,23.61
2023-05-20T12:01:22.750Z,23.61
2023-05-20T12:02:19.032Z,23.61
2023-05-20T12:03:19.107Z,23.61
2023-05-20T12:04:19.221Z,23.61
2023-05-20T12:05:18.974Z,23.62
2023-05-20T12:06:18.955Z,23.62
2023-05-20T12:07:18.945Z,23.62
2023-05-20T12:08:18.942Z,23.63
2023-05-20T12:09:18.946Z,23.62
2023-05-20T12:10:18.946Z,23.63
2023-05-20T12:11:18.911Z,23.63
2023-05-20T12:12:18.931Z,23.63
2023-05-20T12:13:18.912Z,23.64
2023-05-20T12:14:18.916Z,23.64
2023-05-20T12:15:18.914Z,23.64
2023-05-20T12:16:18.921Z,23.63
2023-05-20T12:17:18.892Z,23.63
2023-05-20T12:18:18.862Z,23.64
2023-05-20T12:19:18.871Z,23.63
2023-05-20T12:20:18.865Z,23.62
2023-05-20T12:21:18.871Z,23.63
2023-05-20T12:22:18.857Z,23.63
2023-05-20T12:23:18.863Z,23.63
2023-05-20T12:24:18.840Z,23.62
2023-05-20T12:25:18.833Z,23.62
2023-05-20T12:26:18.821Z,23.63
2023-05-20T12:27:18.798Z,23.63
2023-05-20T12:28:18.793Z,23.63
2023-05-20T12:29:18.817Z,23.63
2023-05-20T12:30:18.783Z,23.63
2023-05-20T12:31:18.788Z,23.64
2023-05-20T12:32:18.808Z,23.63
2023-05-20T12:33:18.765Z,23.62
2023-05-20T12:34:18.763Z,23.63
2023-05-20T12:35:18.774Z,23.63
2023-05-20T12:36:18.748Z,23.64
2023-05-20T12:37:18.755Z,23.63
2023-05-20T12:38:18.759Z,23.63
2023-05-20T12:39:18.741Z,23.63
2023-05-20T12:40:18.723Z,23.64
2023-05-20T12:41:18.749Z,23.63
2023-05-20T12:42:18.688Z,23.64
2023-05-20T12:43:18.685Z,23.63
2023-05-20T12:44:18.698Z,23.63
2023-05-20T12:45:18.701Z,23.64
2023-05-20T12:46:18.718Z,23.63
2023-05-20T12:47:18.708Z,23.64
2023-05-20T12:48:18.652Z,23.63
2023-05-20T12:49:18.657Z,23.64
2023-05-20T12:50:18.648Z,23.64
2023-05-20T12:51:18.649Z,23.64
2023-05-20T12:52:22.451Z,23.66